createdAt,value
2022-10-29T00:01:59.575Z,5.43
2022-10-29T00:04:26.169Z,5.60
2022-10-29T00:06:52.724Z,6.18
2022-10-29T00:09:19.307Z,5.63
2022-10-29T00:11:45.914Z,6.25
2022-10-29T00:14:12.470Z,5.60
2022-10-29T00:16:39.948Z,5.00
2022-10-29T00:19:07.365Z,5.22
2022-10-29T00:21:34.626Z,6.05
2022-10-29T00:24:01.167Z,5.25
2022-10-29T00:26:29.258Z,6.50
2022-10-29T00:28:56.668Z,4.90
2022-10-29T00:31:27.215Z,5.03
2022-10-29T00:33:54.896Z,4.90
2022-10-29T00:36:23.686Z,5.30
2022-10-29T00:38:50.796Z,6.05
2022-10-29T00:41:20.333Z,4.53
2022-10-29T00:43:51.132Z,5.30
2022-10-29T00:46:31.853Z,5.60
2022-10-29T00:48:58.435Z,4.82
2022-10-29T00:51:25.019Z,5.38
2022-10-29T00:53:54.672Z,5.68
2022-10-29T00:56:21.401Z,5.22
2022-10-29T00:58:47.929Z,5.63
2022-10-29T01:01:14.569Z,5.40
2022-10-29T01:03:41.412Z,6.50
2022-10-29T01:06:08.279Z,5.07
2022-10-29T01:08:34.970Z,5.72
2022-10-29T01:11:22.596Z,4.80
2022-10-29T01:14:02.268Z,5.15
2022-10-29T01:16:31.997Z,4.72
2022-10-29T01:19:11.457Z,4.38
2022-10-29T01:21:42.857Z,5.10
2022-10-29T01:24:27.932Z,5.38
2022-10-29T01:27:15.795Z,5.50
2022-10-29T01:29:56.392Z,5.07
2022-10-29T01:32:41.265Z,4.97
2022-10-29T01:35:13.194Z,5.25
2022-10-29T01:38:04.277Z,5.00
2022-10-29T01:40:35.093Z,5.30
2022-10-29T01:43:08.831Z,5.13
2022-10-29T01:46:00.338Z,5.05
2022-10-29T01:48:33.118Z,4.60
2022-10-29T01:51:02.849Z,5.18
2022-10-29T01:53:29.395Z,5.50
2022-10-29T01:55:55.969Z,4.85
2022-10-29T01:58:22.762Z,4.72
2022-10-29T02:00:56.796Z,4.57
2022-10-29T02:04:02.152Z,5.10
2022-10-29T02:07:13.684Z,4.25
2022-10-29T02:09:49.500Z,4.85
2022-10-29T02:12:22.185Z,5.22
2022-10-29T02:15:01.628Z,4.97
2022-10-29T02:17:28.193Z,5.13
2022-10-29T02:19:54.776Z,4.68
2022-10-29T02:22:21.353Z,5.07
2022-10-29T02:24:47.928Z,4.85
2022-10-29T02:27:14.520Z,5.28
2022-10-29T02:29:41.150Z,5.25
2022-10-29T02:32:07.712Z,5.28
2022-10-29T02:34:34.304Z,4.88
2022-10-29T02:37:00.839Z,4.50
2022-10-29T02:39:27.461Z,4.40
2022-10-29T02:41:54.553Z,4.93
2022-10-29T02:44:21.123Z,5.93
2022-10-29T02:46:47.680Z,5.25
2022-10-29T02:49:14.266Z,5.25
2022-10-29T02:51:40.812Z,5.45
2022-10-29T02:54:07.401Z,4.43
2022-10-29T02:56:33.962Z,5.07
2022-10-29T02:59:00.656Z,5.20
2022-10-29T03:01:27.355Z,5.22
2022-10-29T03:03:54.041Z,4.85
2022-10-29T03:06:21.045Z,4.57
2022-10-29T03:08:47.877Z,4.78
2022-10-29T03:11:14.477Z,5.60
2022-10-29T03:13:41.223Z,5.15
2022-10-29T03:16:07.914Z,4.90
2022-10-29T03:18:34.495Z,4.93
2022-10-29T03:21:01.096Z,4.18
2022-10-29T03:23:27.671Z,4.25
2022-10-29T03:25:56.068Z,4.75
2022-10-29T03:28:23.826Z,4.47
2022-10-29T03:30:50.416Z,4.63
2022-10-29T03:33:16.943Z,4.50
2022-10-29T03:35:43.741Z,4.40
2022-10-29T03:38:10.351Z,4.38
2022-10-29T03:40:36.921Z,4.07
2022-10-29T03:43:03.485Z,5.68
2022-10-29T03:45:30.103Z,4.82
2022-10-29T03:47:57.647Z,4.20
2022-10-29T03:50:24.699Z,3.70
2022-10-29T03:52:51.242Z,5.10
2022-10-29T03:55:17.865Z,3.72
2022-10-29T03:57:44.436Z,4.57
2022-10-29T04:00:11.459Z,4.00
2022-10-29T04:02:38.072Z,3.80
2022-10-29T04:05:05.026Z,4.50
2022-10-29T04:07:31.590Z,4.65
2022-10-29T04:09:58.177Z,3.85
2022-10-29T04:12:24.744Z,4.22
2022-10-29T04:17:22.820Z,4.78
2022-10-29T04:19:49.417Z,4.07
2022-10-29T04:28:41.851Z,4.30
2022-10-29T04:30:35.607Z,4.88
2022-10-29T04:33:02.202Z,4.10
2022-10-29T04:35:29.203Z,3.88
2022-10-29T04:37:55.774Z,4.65
2022-10-29T04:40:24.100Z,4.60
2022-10-29T04:42:50.839Z,4.60
2022-10-29T04:45:17.712Z,4.22
2022-10-29T04:47:44.404Z,4.30
2022-10-29T04:50:10.995Z,4.45
2022-10-29T04:52:37.590Z,4.60
2022-10-29T04:55:04.467Z,5.10
2022-10-29T04:57:31.142Z,3.88
2022-10-29T04:59:57.737Z,4.93
2022-10-29T05:02:24.300Z,4.45
2022-10-29T05:04:50.890Z,5.35
2022-10-29T05:07:17.588Z,4.20
2022-10-29T05:09:44.199Z,4.57
2022-10-29T05:12:10.749Z,5.03
2022-10-29T05:14:37.338Z,5.18
2022-10-29T05:17:03.934Z,5.38
2022-10-29T05:19:30.553Z,5.28
2022-10-29T05:21:57.167Z,4.78
2022-10-29T05:24:23.843Z,5.10
2022-10-29T05:26:50.406Z,4.68
2022-10-29T05:29:16.996Z,4.47
2022-10-29T05:31:43.539Z,4.60
2022-10-29T05:34:10.112Z,4.78
2022-10-29T05:36:36.677Z,4.90
2022-10-29T05:39:03.266Z,4.63
2022-10-29T05:41:29.821Z,5.22
2022-10-29T05:43:56.408Z,4.43
2022-10-29T05:46:22.973Z,5.07
2022-10-29T05:48:49.561Z,5.15
2022-10-29T05:51:16.153Z,5.00
2022-10-29T05:53:42.778Z,4.72
2022-10-29T05:56:09.363Z,5.57
2022-10-29T05:58:35.939Z,4.82
2022-10-29T06:01:06.266Z,5.13
2022-10-29T06:03:33.044Z,5.45
2022-10-29T06:05:59.705Z,4.95
2022-10-29T06:08:26.316Z,5.88
2022-10-29T06:10:53.984Z,5.32
2022-10-29T06:13:21.797Z,5.15
2022-10-29T06:15:50.974Z,5.20
2022-10-29T06:18:17.587Z,5.78
2022-10-29T06:20:44.141Z,6.30
2022-10-29T06:23:11.062Z,5.57
2022-10-29T06:25:37.632Z,7.45
2022-10-29T06:28:08.224Z,10.40
2022-10-29T06:30:35.697Z,10.13
2022-10-29T06:33:03.190Z,9.52
2022-10-29T06:35:30.020Z,9.10
2022-10-29T06:37:56.961Z,8.52
2022-10-29T06:40:23.733Z,9.32
2022-10-29T06:42:50.320Z,9.35
2022-10-29T06:45:17.015Z,9.45
2022-10-29T06:47:45.657Z,9.13
2022-10-29T06:50:13.313Z,7.60
2022-10-29T06:52:39.891Z,6.10
2022-10-29T06:55:07.171Z,5.50
2022-10-29T06:57:33.733Z,5.78
2022-10-29T07:00:05.452Z,5.57
2022-10-29T07:02:35.149Z,5.40
2022-10-29T07:05:01.751Z,6.07
2022-10-29T07:07:28.798Z,4.95
2022-10-29T07:09:55.360Z,5.50
2022-10-29T07:12:21.877Z,6.05
2022-10-29T07:14:48.431Z,5.95
2022-10-29T07:17:14.955Z,5.28
2022-10-29T07:19:41.529Z,6.10
2022-10-29T07:22:08.092Z,5.50
2022-10-29T07:24:34.656Z,4.93
2022-10-29T07:27:01.902Z,5.95
2022-10-29T07:29:28.537Z,4.95
2022-10-29T07:31:55.081Z,5.70
2022-10-29T07:34:21.681Z,5.25
2022-10-29T07:36:48.223Z,5.60
2022-10-29T07:39:14.795Z,5.43
2022-10-29T07:41:41.365Z,5.55
2022-10-29T07:44:07.943Z,6.00
2022-10-29T07:46:34.505Z,6.07
2022-10-29T07:49:01.070Z,5.35
2022-10-29T07:51:27.869Z,5.60
2022-10-29T07:53:54.466Z,5.07
2022-10-29T07:56:21.004Z,5.15
2022-10-29T07:58:47.594Z,5.25
2022-10-29T08:01:14.256Z,5.10
2022-10-29T08:03:40.994Z,5.07
2022-10-29T08:06:07.765Z,4.53
2022-10-29T08:08:35.002Z,6.22
2022-10-29T08:11:02.183Z,4.55
2022-10-29T08:13:29.021Z,4.57
2022-10-29T08:15:55.633Z,4.90
2022-10-29T08:18:22.347Z,5.15
2022-10-29T08:20:48.918Z,4.55
2022-10-29T08:23:15.544Z,4.28
2022-10-29T08:25:42.929Z,4.30
2022-10-29T08:28:12.098Z,4.88
2022-10-29T08:30:39.088Z,4.13
2022-10-29T08:33:05.721Z,4.88
2022-10-29T08:35:32.951Z,5.80
2022-10-29T08:37:59.879Z,4.35
2022-10-29T08:40:32.434Z,4.10
2022-10-29T08:43:21.528Z,4.45
2022-10-29T08:45:49.635Z,4.18
2022-10-29T08:48:20.027Z,3.70
2022-10-29T08:50:49.172Z,3.95
2022-10-29T08:53:24.600Z,4.55
2022-10-29T08:55:53.292Z,4.30
2022-10-29T08:58:41.534Z,4.78
2022-10-29T09:01:11.171Z,5.53
2022-10-29T09:03:37.881Z,5.75
2022-10-29T09:06:10.366Z,6.68
2022-10-29T09:08:55.476Z,5.70
2022-10-29T09:11:28.857Z,4.93
2022-10-29T09:14:17.157Z,4.68
2022-10-29T09:16:57.522Z,6.43
2022-10-29T09:19:33.152Z,6.78
2022-10-29T09:22:24.309Z,5.30
2022-10-29T09:25:12.651Z,5.28
2022-10-29T09:28:10.445Z,4.65
2022-10-29T09:30:45.698Z,4.00
2022-10-29T09:33:15.410Z,4.88
2022-10-29T09:35:53.604Z,4.97
2022-10-29T09:38:29.848Z,4.53
2022-10-29T09:41:01.148Z,5.03
2022-10-29T09:43:39.849Z,4.88
2022-10-29T09:46:37.252Z,3.90
2022-10-29T09:49:36.271Z,4.53
2022-10-29T09:52:11.251Z,3.63
2022-10-29T09:54:37.835Z,3.90
2022-10-29T09:57:04.470Z,3.70
2022-10-29T09:59:37.270Z,4.07
2022-10-29T10:04:34.067Z,4.18
2022-10-29T10:07:06.161Z,4.50
2022-10-29T10:09:55.258Z,4.28
2022-10-29T10:12:36.745Z,3.83
2022-10-29T10:15:28.294Z,4.57
2022-10-29T10:17:56.983Z,4.93
2022-10-29T10:20:45.567Z,4.70
2022-10-29T10:23:24.252Z,4.72
2022-10-29T10:25:52.788Z,6.07
2022-10-29T10:28:24.850Z,6.10
2022-10-29T10:31:13.079Z,5.43
2022-10-29T10:33:51.885Z,5.65
2022-10-29T10:36:21.066Z,5.72
2022-10-29T10:38:50.088Z,5.00
2022-10-29T10:41:22.684Z,3.95
2022-10-29T10:43:49.323Z,6.00
2022-10-29T10:46:24.291Z,4.03
2022-10-29T10:49:03.240Z,3.35
2022-10-29T10:51:31.782Z,2.60
2022-10-29T10:53:59.639Z,2.95
2022-10-29T10:56:26.249Z,3.05
2022-10-29T10:59:02.638Z,3.03
2022-10-29T11:01:36.610Z,3.08
2022-10-29T11:04:36.572Z,3.40
2022-10-29T11:07:05.552Z,3.58
2022-10-29T11:09:34.872Z,4.10
2022-10-29T11:12:06.153Z,3.85
2022-10-29T11:14:36.639Z,3.78
2022-10-29T11:17:04.569Z,3.78
2022-10-29T11:19:36.827Z,3.72
2022-10-29T11:22:25.623Z,3.50
2022-10-29T11:25:05.300Z,3.00
2022-10-29T11:27:41.317Z,3.28
2022-10-29T11:30:16.472Z,3.10
2022-10-29T11:33:00.504Z,3.10
2022-10-29T11:35:51.524Z,3.55
2022-10-29T11:38:21.039Z,3.03
2022-10-29T11:41:26.152Z,2.92
2022-10-29T11:43:52.782Z,3.60
2022-10-29T11:46:28.869Z,3.35
2022-10-29T11:48:55.387Z,3.00
2022-10-29T11:51:52.414Z,2.72
2022-10-29T11:55:13.291Z,2.63
2022-10-29T11:57:41.876Z,3.15
2022-10-29T12:00:57.856Z,3.10
2022-10-29T12:03:28.554Z,2.83
2022-10-29T12:06:19.658Z,3.92
2022-10-29T12:08:53.532Z,3.03
2022-10-29T12:11:43.057Z,2.80
2022-10-29T12:14:18.071Z,3.33
2022-10-29T12:16:57.475Z,3.20
2022-10-29T12:19:48.653Z,3.08
2022-10-29T12:22:20.687Z,3.17
2022-10-29T12:24:53.633Z,3.50
2022-10-29T12:27:51.078Z,3.72
2022-10-29T12:30:18.498Z,4.80
2022-10-29T12:33:03.830Z,5.38
2022-10-29T12:35:39.222Z,9.68
2022-10-29T12:38:09.028Z,11.27
2022-10-29T12:40:38.436Z,3.85
2022-10-29T12:43:11.476Z,5.45
2022-10-29T12:46:14.799Z,6.35
2022-10-29T12:49:02.889Z,5.80
2022-10-29T12:54:31.343Z,5.60
2022-10-29T12:57:29.535Z,6.07
2022-10-29T12:59:57.192Z,3.28
2022-10-29T13:02:33.190Z,2.90
2022-10-29T13:05:06.130Z,3.20
2022-10-29T13:07:33.732Z,3.05
2022-10-29T13:10:28.800Z,3.10
2022-10-29T13:12:57.913Z,3.60
2022-10-29T13:15:37.194Z,3.22
2022-10-29T13:18:13.288Z,2.90
2022-10-29T13:20:42.266Z,3.70
2022-10-29T13:23:32.498Z,4.03
2022-10-29T13:26:01.396Z,3.92
2022-10-29T13:28:28.521Z,3.75
2022-10-29T13:31:04.384Z,3.83
2022-10-29T13:33:31.768Z,3.35
2022-10-29T13:35:59.359Z,3.95
2022-10-29T13:39:04.923Z,3.65
2022-10-29T13:41:42.815Z,3.55
2022-10-29T13:44:30.780Z,3.60
2022-10-29T13:47:01.235Z,3.45
2022-10-29T13:49:42.471Z,3.03
2022-10-29T13:52:09.000Z,2.92
2022-10-29T13:54:37.838Z,3.65
2022-10-29T13:57:17.861Z,3.95
2022-10-29T13:59:59.693Z,3.38
2022-10-29T14:02:32.900Z,3.93
2022-10-29T14:05:14.899Z,3.20
2022-10-29T14:11:36.781Z,3.15
2022-10-29T14:14:07.015Z,4.10
2022-10-29T14:16:34.095Z,3.33
2022-10-29T14:19:20.972Z,3.90
2022-10-29T14:21:48.370Z,3.65
2022-10-29T14:24:16.627Z,3.20
2022-10-29T14:26:44.894Z,3.35
2022-10-29T14:29:18.359Z,3.60
2022-10-29T14:31:45.550Z,3.65
2022-10-29T14:34:27.054Z,3.60
2022-10-29T14:36:56.635Z,3.30
2022-10-29T14:39:36.958Z,3.67
2022-10-29T14:42:16.999Z,4.00
2022-10-29T14:44:50.030Z,3.00
2022-10-29T14:47:32.219Z,3.63
2022-10-29T14:50:03.015Z,4.00
2022-10-29T14:52:40.213Z,4.18
2022-10-29T14:55:20.939Z,3.97
2022-10-29T14:57:50.039Z,4.53
2022-10-29T15:00:25.281Z,3.70
2022-10-29T15:03:21.001Z,4.30
2022-10-29T15:05:48.278Z,4.55
2022-10-29T15:08:19.260Z,3.97
2022-10-29T15:10:47.065Z,4.20
2022-10-29T15:13:25.267Z,4.03
2022-10-29T15:16:12.066Z,5.25
2022-10-29T15:18:38.671Z,4.13
2022-10-29T15:21:05.526Z,4.22
2022-10-29T15:23:34.327Z,4.13
2022-10-29T15:26:08.968Z,4.45
2022-10-29T15:28:43.530Z,4.78
2022-10-29T15:31:31.443Z,4.45
2022-10-29T15:34:00.726Z,4.28
2022-10-29T15:36:27.743Z,4.90
2022-10-29T15:39:28.067Z,4.00
2022-10-29T15:41:57.261Z,4.28
2022-10-29T15:44:29.441Z,4.38
2022-10-29T15:47:01.046Z,4.50
2022-10-29T15:49:33.423Z,4.45
2022-10-29T15:52:03.575Z,3.50
2022-10-29T15:54:30.788Z,5.20
2022-10-29T15:56:57.960Z,4.35
2022-10-29T15:59:26.168Z,3.58
2022-10-29T16:02:01.195Z,4.47
2022-10-29T16:04:28.362Z,3.70
2022-10-29T16:06:55.923Z,4.75
2022-10-29T16:09:23.557Z,3.95
2022-10-29T16:11:52.259Z,4.38
2022-10-29T16:14:19.241Z,5.10
2022-10-29T16:16:46.697Z,4.10
2022-10-29T16:19:13.766Z,4.20
2022-10-29T16:21:40.701Z,5.20
2022-10-29T16:24:12.529Z,4.63
2022-10-29T16:26:39.689Z,5.03
2022-10-29T16:29:06.766Z,4.30
2022-10-29T16:31:34.034Z,5.53
2022-10-29T16:34:03.717Z,4.82
2022-10-29T16:36:30.759Z,4.78
2022-10-29T16:38:57.719Z,5.18
2022-10-29T16:41:24.762Z,5.03
2022-10-29T16:43:52.802Z,4.55
2022-10-29T16:46:19.797Z,4.30
2022-10-29T16:48:46.884Z,4.68
2022-10-29T16:51:13.754Z,6.10
2022-10-29T16:53:40.775Z,4.18
2022-10-29T16:56:07.892Z,4.85
2022-10-29T16:58:34.943Z,5.97
2022-10-29T17:01:05.761Z,6.55
2022-10-29T17:03:33.477Z,6.38
2022-10-29T17:06:05.330Z,6.80
2022-10-29T17:08:34.907Z,7.17
2022-10-29T17:11:02.193Z,6.88
2022-10-29T17:13:28.795Z,7.10
2022-10-29T17:15:55.654Z,6.97
2022-10-29T17:18:24.262Z,6.65
2022-10-29T17:20:58.514Z,6.78
2022-10-29T17:23:25.593Z,6.82
2022-10-29T17:25:54.122Z,6.70
2022-10-29T17:28:25.120Z,7.00
2022-10-29T17:30:52.459Z,6.65
2022-10-29T17:33:19.828Z,6.32
2022-10-29T17:35:46.863Z,6.93
2022-10-29T17:38:14.090Z,6.15
2022-10-29T17:40:43.642Z,6.53
2022-10-29T17:43:10.755Z,6.10
2022-10-29T17:45:37.796Z,6.20
2022-10-29T17:48:04.911Z,6.90
2022-10-29T17:50:32.029Z,6.63
2022-10-29T17:52:58.875Z,6.05
2022-10-29T17:55:26.174Z,6.68
2022-10-29T17:57:53.244Z,7.15
2022-10-29T18:00:20.350Z,5.72
2022-10-29T18:02:51.037Z,6.20
2022-10-29T18:05:19.030Z,6.43
2022-10-29T18:07:46.121Z,6.90
2022-10-29T18:10:13.271Z,6.78
2022-10-29T18:12:40.267Z,6.38
2022-10-29T18:15:07.811Z,6.88
2022-10-29T18:17:34.861Z,7.22
2022-10-29T18:20:01.881Z,6.97
2022-10-29T18:22:28.892Z,7.75
2022-10-29T18:24:56.019Z,6.78
2022-10-29T18:27:23.024Z,6.95
2022-10-29T18:29:50.146Z,6.88
2022-10-29T18:32:16.991Z,6.38
2022-10-29T18:34:44.058Z,7.32
2022-10-29T18:37:11.056Z,6.82
2022-10-29T18:39:39.380Z,7.60
2022-10-29T18:42:06.449Z,7.43
2022-10-29T18:44:33.337Z,6.90
2022-10-29T18:47:00.451Z,6.88
2022-10-29T18:49:28.298Z,7.63
2022-10-29T18:51:55.324Z,6.55
2022-10-29T18:54:22.518Z,6.65
2022-10-29T18:56:49.626Z,6.68
2022-10-29T18:59:16.712Z,7.60
2022-10-29T19:01:43.889Z,6.68
2022-10-29T19:04:13.564Z,7.68
2022-10-29T19:06:40.337Z,6.90
2022-10-29T19:09:08.687Z,6.63
2022-10-29T19:11:35.698Z,7.10
2022-10-29T19:14:07.079Z,7.43
2022-10-29T19:16:33.861Z,6.47
2022-10-29T19:19:03.103Z,6.57
2022-10-29T19:21:30.352Z,6.75
2022-10-29T19:23:58.668Z,8.88
2022-10-29T19:26:27.025Z,7.45
2022-10-29T19:28:53.963Z,7.18
2022-10-29T19:31:22.891Z,6.82
2022-10-29T19:33:54.347Z,6.22
2022-10-29T19:36:21.721Z,7.63
2022-10-29T19:38:48.673Z,7.00
2022-10-29T19:41:15.819Z,6.97
2022-10-29T19:43:42.860Z,7.53
2022-10-29T19:46:12.332Z,6.50
2022-10-29T19:48:39.478Z,6.00
2022-10-29T19:51:06.573Z,6.95
2022-10-29T19:53:33.735Z,6.90
2022-10-29T19:56:00.346Z,6.95
2022-10-29T19:58:28.067Z,7.28
2022-10-29T20:00:55.045Z,7.28
2022-10-29T20:03:21.796Z,7.13
2022-10-29T20:05:49.270Z,7.88
2022-10-29T20:08:16.526Z,7.18
2022-10-29T20:10:43.651Z,7.93
2022-10-29T20:13:10.375Z,7.65
2022-10-29T20:15:38.809Z,8.07
2022-10-29T20:18:05.704Z,8.00
2022-10-29T20:20:32.416Z,8.00
2022-10-29T20:23:01.193Z,8.32
2022-10-29T20:25:28.390Z,7.68
2022-10-29T20:27:55.373Z,8.32
2022-10-29T20:30:22.578Z,8.48
2022-10-29T20:32:50.117Z,7.32
2022-10-29T20:35:17.934Z,7.93
2022-10-29T20:37:44.969Z,7.78
2022-10-29T20:40:12.748Z,8.05
2022-10-29T20:42:41.267Z,7.22
2022-10-29T20:45:08.665Z,7.47
2022-10-29T20:47:35.713Z,7.60
2022-10-29T20:50:03.007Z,9.18
2022-10-29T20:52:33.517Z,8.48
2022-10-29T20:55:00.321Z,8.90
2022-10-29T20:57:27.315Z,9.27
2022-10-29T20:59:54.218Z,8.68
2022-10-29T21:02:21.476Z,9.07
2022-10-29T21:04:48.665Z,7.63
2022-10-29T21:07:15.641Z,8.85
2022-10-29T21:09:42.718Z,9.25
2022-10-29T21:12:09.786Z,8.63
2022-10-29T21:14:36.651Z,8.20
2022-10-29T21:17:03.656Z,8.65
2022-10-29T21:19:30.928Z,8.15
2022-10-29T21:22:00.819Z,7.78
2022-10-29T21:24:28.318Z,7.55
2022-10-29T21:26:55.400Z,8.20
2022-10-29T21:29:22.813Z,8.45
2022-10-29T21:31:50.173Z,8.70
2022-10-29T21:34:17.033Z,7.85
2022-10-29T21:36:44.190Z,8.27
2022-10-29T21:39:11.420Z,8.68
2022-10-29T21:41:38.233Z,7.93
2022-10-29T21:44:05.499Z,8.07
2022-10-29T21:46:32.267Z,8.25
2022-10-29T21:48:59.367Z,8.25
2022-10-29T21:51:26.384Z,8.60
2022-10-29T21:53:53.394Z,8.32
2022-10-29T21:56:20.228Z,7.70
2022-10-29T21:58:47.280Z,9.45
2022-10-29T22:01:16.295Z,7.00
2022-10-29T22:03:44.906Z,7.38
2022-10-29T22:06:16.858Z,9.23
2022-10-29T22:08:44.059Z,7.13
2022-10-29T22:11:11.713Z,8.65
2022-10-29T22:13:39.052Z,7.85
2022-10-29T22:16:07.027Z,8.05
2022-10-29T22:18:34.283Z,7.70
2022-10-29T22:21:17.081Z,9.25
2022-10-29T22:23:48.517Z,8.73
2022-10-29T22:26:16.679Z,8.23
2022-10-29T22:28:43.618Z,8.18
2022-10-29T22:31:10.404Z,8.00
2022-10-29T22:33:37.014Z,8.73
2022-10-29T22:36:09.086Z,8.77
2022-10-29T22:38:36.001Z,7.80
2022-10-29T22:41:10.011Z,7.63
2022-10-29T22:43:37.124Z,7.85
2022-10-29T22:46:04.326Z,8.23
2022-10-29T22:48:31.034Z,9.40
2022-10-29T22:51:09.306Z,8.88
2022-10-29T22:53:35.894Z,8.13
2022-10-29T22:56:02.662Z,8.73
2022-10-29T22:58:29.364Z,8.10
2022-10-29T23:01:07.045Z,8.60
2022-10-29T23:03:34.354Z,7.85
2022-10-29T23:06:02.658Z,8.60
2022-10-29T23:08:29.539Z,7.45
2022-10-29T23:10:56.081Z,8.00
2022-10-29T23:13:22.748Z,8.20
2022-10-29T23:15:50.404Z,8.00
2022-10-29T23:18:17.177Z,7.82
2022-10-29T23:20:44.114Z,8.38
2022-10-29T23:23:10.716Z,8.05
2022-10-29T23:25:40.751Z,8.02
2022-10-29T23:28:07.772Z,7.72
2022-10-29T23:30:34.478Z,8.10
2022-10-29T23:33:01.070Z,7.78
2022-10-29T23:35:27.647Z,7.95
2022-10-29T23:37:54.269Z,7.97
2022-10-29T23:40:20.952Z,7.22
2022-10-29T23:42:47.498Z,7.47
2022-10-29T23:45:16.962Z,7.38
2022-10-29T23:47:43.698Z,7.63
2022-10-29T23:50:10.305Z,7.47
2022-10-29T23:52:36.874Z,6.85
2022-10-29T23:55:03.604Z,6.55
2022-10-29T23:57:30.214Z,6.93
2022-10-29T23:59:56.830Z,6.85
